sensor_id;sensor_type;location;lat;lon;timestamp;P1;durP1;ratioP1;P2;durP2;ratioP2
3207;SDS011;1616;52.394;9.756;2023-04-15T00:02:18;4.60;;;4.20;;
3207;SDS011;1616;52.394;9.756;2023-04-15T00:04:45;5.23;;;3.83;;
3207;SDS011;1616;52.394;9.756;2023-04-15T00:07:11;3.93;;;3.63;;
3207;SDS011;1616;52.394;9.756;2023-04-15T00:09:37;4.20;;;4.00;;
3207;SDS011;1616;52.394;9.756;2023-04-15T00:12:03;4.83;;;4.50;;
3207;SDS011;1616;52.394;9.756;2023-04-15T00:14:29;4.43;;;4.13;;
3207;SDS011;1616;52.394;9.756;2023-04-15T00:16:55;3.83;;;3.53;;
3207;SDS011;1616;52.394;9.756;2023-04-15T00:19:22;4.03;;;3.83;;
3207;SDS011;1616;52.394;9.756;2023-04-15T00:21:48;4.37;;;4.07;;
3207;SDS011;1616;52.394;9.756;2023-04-15T00:24:14;5.23;;;4.10;;
3207;SDS011;1616;52.394;9.756;2023-04-15T00:26:39;3.70;;;3.40;;
3207;SDS011;1616;52.394;9.756;2023-04-15T00:29:05;4.60;;;3.60;;
3207;SDS011;1616;52.394;9.756;2023-04-15T00:31:31;3.90;;;3.63;;
3207;SDS011;1616;52.394;9.756;2023-04-15T00:33:57;4.43;;;4.17;;
3207;SDS011;1616;52.394;9.756;2023-04-15T00:36:23;4.93;;;4.63;;
3207;SDS011;1616;52.394;9.756;2023-04-15T00:38:50;6.10;;;4.00;;
3207;SDS011;1616;52.394;9.756;2023-04-15T00:41:16;5.20;;;4.80;;
3207;SDS011;1616;52.394;9.756;2023-04-15T00:43:43;4.30;;;3.97;;
3207;SDS011;1616;52.394;9.756;2023-04-15T00:46:09;5.33;;;5.03;;
3207;SDS011;1616;52.394;9.756;2023-04-15T00:48:38;5.43;;;4.90;;
3207;SDS011;1616;52.394;9.756;2023-04-15T00:51:04;5.13;;;4.63;;
3207;SDS011;1616;52.394;9.756;2023-04-15T00:53:31;4.93;;;4.63;;
3207;SDS011;1616;52.394;9.756;2023-04-15T00:55:57;4.77;;;4.30;;
3207;SDS011;1616;52.394;9.756;2023-04-15T00:58:22;6.20;;;5.03;;
3207;SDS011;1616;52.394;9.756;2023-04-15T01:00:48;5.80;;;5.40;;
3207;SDS011;1616;52.394;9.756;2023-04-15T01:03:19;5.83;;;4.40;;
3207;SDS011;1616;52.394;9.756;2023-04-15T01:05:45;5.30;;;4.90;;
3207;SDS011;1616;52.394;9.756;2023-04-15T01:08:11;5.57;;;5.07;;
3207;SDS011;1616;52.394;9.756;2023-04-15T01:10:37;10.17;;;6.30;;
3207;SDS011;1616;52.394;9.756;2023-04-15T01:13:03;7.47;;;6.77;;
3207;SDS011;1616;52.394;9.756;2023-04-15T01:15:29;8.07;;;7.47;;
3207;SDS011;1616;52.394;9.756;2023-04-15T01:17:56;11.93;;;7.13;;
3207;SDS011;1616;52.394;9.756;2023-04-15T01:20:23;11.77;;;6.53;;
3207;SDS011;1616;52.394;9.756;2023-04-15T01:22:49;11.63;;;5.63;;
3207;SDS011;1616;52.394;9.756;2023-04-15T01:25:18;7.90;;;7.20;;
3207;SDS011;1616;52.394;9.756;2023-04-15T01:27:52;8.13;;;7.17;;
3207;SDS011;1616;52.394;9.756;2023-04-15T01:30:18;7.80;;;7.00;;
3207;SDS011;1616;52.394;9.756;2023-04-15T01:32:44;9.57;;;8.67;;
3207;SDS011;1616;52.394;9.756;2023-04-15T01:35:10;7.70;;;7.10;;
3207;SDS011;1616;52.394;9.756;2023-04-15T01:37:35;7.80;;;7.20;;
3207;SDS011;1616;52.394;9.756;2023-04-15T01:40:02;7.67;;;6.90;;
3207;SDS011;1616;52.394;9.756;2023-04-15T01:42:27;8.13;;;7.50;;
3207;SDS011;1616;52.394;9.756;2023-04-15T01:44:53;8.73;;;7.03;;
3207;SDS011;1616;52.394;9.756;2023-04-15T01:47:19;9.10;;;8.20;;
3207;SDS011;1616;52.394;9.756;2023-04-15T01:49:44;9.50;;;8.67;;
3207;SDS011;1616;52.394;9.756;2023-04-15T01:52:10;9.63;;;8.70;;
3207;SDS011;1616;52.394;9.756;2023-04-15T01:54:36;9.60;;;8.60;;
3207;SDS011;1616;52.394;9.756;2023-04-15T01:57:01;8.90;;;8.10;;
3207;SDS011;1616;52.394;9.756;2023-04-15T01:59:29;8.70;;;8.00;;
3207;SDS011;1616;52.394;9.756;2023-04-15T02:01:55;8.97;;;8.23;;
3207;SDS011;1616;52.394;9.756;2023-04-15T02:04:21;11.70;;;8.57;;
3207;SDS011;1616;52.394;9.756;2023-04-15T02:06:47;9.70;;;8.80;;
3207;SDS011;1616;52.394;9.756;2023-04-15T02:09:13;9.97;;;8.97;;
3207;SDS011;1616;52.394;9.756;2023-04-15T02:11:38;9.40;;;8.53;;
3207;SDS011;1616;52.394;9.756;2023-04-15T02:14:04;8.90;;;8.10;;
3207;SDS011;1616;52.394;9.756;2023-04-15T02:16:31;11.30;;;8.87;;
3207;SDS011;1616;52.394;9.756;2023-04-15T02:18:58;11.80;;;9.03;;
3207;SDS011;1616;52.394;9.756;2023-04-15T02:21:27;9.30;;;8.43;;
3207;SDS011;1616;52.394;9.756;2023-04-15T02:23:53;10.10;;;9.23;;
3207;SDS011;1616;52.394;9.756;2023-04-15T02:26:20;9.43;;;8.63;;
3207;SDS011;1616;52.394;9.756;2023-04-15T02:28:46;11.20;;;10.00;;
3207;SDS011;1616;52.394;9.756;2023-04-15T02:31:13;9.40;;;8.30;;
3207;SDS011;1616;52.394;9.756;2023-04-15T02:33:39;13.00;;;9.10;;
3207;SDS011;1616;52.394;9.756;2023-04-15T02:36:05;10.33;;;9.23;;
3207;SDS011;1616;52.394;9.756;2023-04-15T02:38:32;8.60;;;7.73;;
3207;SDS011;1616;52.394;9.756;2023-04-15T02:40:58;13.43;;;9.80;;
3207;SDS011;1616;52.394;9.756;2023-04-15T02:43:23;10.73;;;9.07;;
3207;SDS011;1616;52.394;9.756;2023-04-15T02:45:49;11.57;;;8.90;;
3207;SDS011;1616;52.394;9.756;2023-04-15T02:48:15;12.73;;;9.53;;
3207;SDS011;1616;52.394;9.756;2023-04-15T02:50:44;11.40;;;9.67;;
3207;SDS011;1616;52.394;9.756;2023-04-15T02:53:10;12.67;;;10.30;;
3207;SDS011;1616;52.394;9.756;2023-04-15T02:55:37;13.50;;;11.20;;
3207;SDS011;1616;52.394;9.756;2023-04-15T02:58:04;13.40;;;10.00;;
3207;SDS011;1616;52.394;9.756;2023-04-15T03:00:29;12.10;;;10.80;;
3207;SDS011;1616;52.394;9.756;2023-04-15T03:03:00;14.27;;;10.63;;
3207;SDS011;1616;52.394;9.756;2023-04-15T03:05:27;12.63;;;10.40;;
3207;SDS011;1616;52.394;9.756;2023-04-15T03:07:53;14.77;;;10.57;;
3207;SDS011;1616;52.394;9.756;2023-04-15T03:10:19;18.27;;;11.20;;
3207;SDS011;1616;52.394;9.756;2023-04-15T03:12:45;17.13;;;12.53;;
3207;SDS011;1616;52.394;9.756;2023-04-15T03:15:11;16.77;;;12.50;;
3207;SDS011;1616;52.394;9.756;2023-04-15T03:17:36;17.03;;;13.30;;
3207;SDS011;1616;52.394;9.756;2023-04-15T03:20:03;17.70;;;11.17;;
3207;SDS011;1616;52.394;9.756;2023-04-15T03:22:30;15.70;;;12.30;;
3207;SDS011;1616;52.394;9.756;2023-04-15T03:24:56;17.07;;;12.73;;
3207;SDS011;1616;52.394;9.756;2023-04-15T03:27:22;16.03;;;12.73;;
3207;SDS011;1616;52.394;9.756;2023-04-15T03:29:48;15.40;;;11.90;;
3207;SDS011;1616;52.394;9.756;2023-04-15T03:32:13;16.87;;;12.47;;
3207;SDS011;1616;52.394;9.756;2023-04-15T03:34:40;17.63;;;13.40;;
3207;SDS011;1616;52.394;9.756;2023-04-15T03:37:06;22.90;;;12.60;;
3207;SDS011;1616;52.394;9.756;2023-04-15T03:39:32;14.20;;;12.20;;
3207;SDS011;1616;52.394;9.756;2023-04-15T03:41:58;21.20;;;13.87;;
3207;SDS011;1616;52.394;9.756;2023-04-15T03:44:25;19.37;;;13.60;;
3207;SDS011;1616;52.394;9.756;2023-04-15T03:46:51;23.00;;;15.17;;
3207;SDS011;1616;52.394;9.756;2023-04-15T03:49:17;20.93;;;15.17;;
3207;SDS011;1616;52.394;9.756;2023-04-15T03:51:43;20.97;;;15.40;;
3207;SDS011;1616;52.394;9.756;2023-04-15T03:54:10;22.27;;;15.80;;
3207;SDS011;1616;52.394;9.756;2023-04-15T03:56:36;30.70;;;17.43;;
3207;SDS011;1616;52.394;9.756;2023-04-15T03:59:02;25.33;;;15.40;;
3207;SDS011;1616;52.394;9.756;2023-04-15T04:01:28;25.07;;;16.77;;
3207;SDS011;1616;52.394;9.756;2023-04-15T04:03:53;23.17;;;16.37;;
3207;SDS011;1616;52.394;9.756;2023-04-15T04:06:19;26.93;;;17.60;;
3207;SDS011;1616;52.394;9.756;2023-04-15T04:08:44;22.10;;;14.97;;
3207;SDS011;1616;52.394;9.756;2023-04-15T04:11:10;25.67;;;17.40;;
3207;SDS011;1616;52.394;9.756;2023-04-15T04:13:36;21.30;;;14.70;;
3207;SDS011;1616;52.394;9.756;2023-04-15T04:16:01;25.07;;;16.93;;
3207;SDS011;1616;52.394;9.756;2023-04-15T04:18:29;28.40;;;17.00;;
3207;SDS011;1616;52.394;9.756;2023-04-15T04:20:55;29.33;;;17.50;;
3207;SDS011;1616;52.394;9.756;2023-04-15T04:23:21;29.60;;;16.50;;
3207;SDS011;1616;52.394;9.756;2023-04-15T04:25:47;27.13;;;17.03;;
3207;SDS011;1616;52.394;9.756;2023-04-15T04:28:13;27.20;;;17.63;;
3207;SDS011;1616;52.394;9.756;2023-04-15T04:30:38;33.30;;;17.07;;
3207;SDS011;1616;52.394;9.756;2023-04-15T04:33:05;25.23;;;16.37;;
3207;SDS011;1616;52.394;9.756;2023-04-15T04:35:31;26.83;;;16.67;;
3207;SDS011;1616;52.394;9.756;2023-04-15T04:37:59;29.73;;;16.23;;
3207;SDS011;1616;52.394;9.756;2023-04-15T04:40:25;30.93;;;19.50;;
3207;SDS011;1616;52.394;9.756;2023-04-15T04:42:51;31.17;;;18.70;;
3207;SDS011;1616;52.394;9.756;2023-04-15T04:45:18;36.50;;;20.87;;
3207;SDS011;1616;52.394;9.756;2023-04-15T04:47:44;33.57;;;19.40;;
3207;SDS011;1616;52.394;9.756;2023-04-15T04:50:10;29.27;;;18.63;;
3207;SDS011;1616;52.394;9.756;2023-04-15T04:52:36;32.20;;;19.80;;
3207;SDS011;1616;52.394;9.756;2023-04-15T04:55:02;27.33;;;18.33;;
3207;SDS011;1616;52.394;9.756;2023-04-15T04:57:28;32.80;;;21.07;;
3207;SDS011;1616;52.394;9.756;2023-04-15T04:59:54;34.17;;;19.57;;
3207;SDS011;1616;52.394;9.756;2023-04-15T05:02:19;30.60;;;19.30;;
3207;SDS011;1616;52.394;9.756;2023-04-15T05:04:45;36.07;;;20.10;;
3207;SDS011;1616;52.394;9.756;2023-04-15T05:07:10;32.30;;;19.30;;
3207;SDS011;1616;52.394;9.756;2023-04-15T05:09:36;32.73;;;20.87;;
3207;SDS011;1616;52.394;9.756;2023-04-15T05:12:05;29.40;;;19.10;;
3207;SDS011;1616;52.394;9.756;2023-04-15T05:14:31;35.97;;;20.50;;
3207;SDS011;1616;52.394;9.756;2023-04-15T05:16:57;34.00;;;19.47;;
3207;SDS011;1616;52.394;9.756;2023-04-15T05:19:23;28.97;;;20.13;;
3207;SDS011;1616;52.394;9.756;2023-04-15T05:21:48;31.80;;;18.23;;
3207;SDS011;1616;52.394;9.756;2023-04-15T05:24:14;33.97;;;19.40;;
3207;SDS011;1616;52.394;9.756;2023-04-15T05:26:39;30.83;;;19.40;;
3207;SDS011;1616;52.394;9.756;2023-04-15T05:29:05;30.93;;;19.60;;
3207;SDS011;1616;52.394;9.756;2023-04-15T05:31:31;28.23;;;18.70;;
3207;SDS011;1616;52.394;9.756;2023-04-15T05:33:56;36.20;;;20.47;;
3207;SDS011;1616;52.394;9.756;2023-04-15T05:36:22;33.33;;;20.10;;
3207;SDS011;1616;52.394;9.756;2023-04-15T05:38:48;35.73;;;20.63;;
3207;SDS011;1616;52.394;9.756;2023-04-15T05:41:14;32.27;;;18.93;;
3207;SDS011;1616;52.394;9.756;2023-04-15T05:43:40;26.63;;;18.20;;
3207;SDS011;1616;52.394;9.756;2023-04-15T05:46:06;28.40;;;16.50;;
3207;SDS011;1616;52.394;9.756;2023-04-15T05:48:32;25.10;;;16.80;;
3207;SDS011;1616;52.394;9.756;2023-04-15T05:50:58;29.17;;;18.97;;
3207;SDS011;1616;52.394;9.756;2023-04-15T05:53:25;29.93;;;17.37;;
3207;SDS011;1616;52.394;9.756;2023-04-15T05:55:50;35.70;;;17.10;;
3207;SDS011;1616;52.394;9.756;2023-04-15T05:58:16;28.50;;;17.40;;
3207;SDS011;1616;52.394;9.756;2023-04-15T06:00:42;31.03;;;17.00;;
3207;SDS011;1616;52.394;9.756;2023-04-15T06:03:09;27.80;;;16.50;;
3207;SDS011;1616;52.394;9.756;2023-04-15T06:05:35;25.47;;;16.00;;
3207;SDS011;1616;52.394;9.756;2023-04-15T06:08:01;25.53;;;14.97;;
3207;SDS011;1616;52.394;9.756;2023-04-15T06:10:27;21.10;;;14.27;;
3207;SDS011;1616;52.394;9.756;2023-04-15T06:12:53;26.07;;;14.90;;
3207;SDS011;1616;52.394;9.756;2023-04-15T06:15:18;20.30;;;14.57;;
3207;SDS011;1616;52.394;9.756;2023-04-15T06:17:44;23.17;;;13.37;;
3207;SDS011;1616;52.394;9.756;2023-04-15T06:20:10;19.83;;;14.83;;
3207;SDS011;1616;52.394;9.756;2023-04-15T06:22:36;25.27;;;13.70;;
3207;SDS011;1616;52.394;9.756;2023-04-15T06:25:03;21.70;;;14.27;;
3207;SDS011;1616;52.394;9.756;2023-04-15T06:27:30;20.70;;;13.17;;
3207;SDS011;1616;52.394;9.756;2023-04-15T06:29:56;17.97;;;12.60;;
3207;SDS011;1616;52.394;9.756;2023-04-15T06:32:22;18.00;;;12.23;;
3207;SDS011;1616;52.394;9.756;2023-04-15T06:34:47;18.67;;;13.40;;
3207;SDS011;1616;52.394;9.756;2023-04-15T06:37:13;14.30;;;11.30;;
3207;SDS011;1616;52.394;9.756;2023-04-15T06:39:40;14.23;;;10.10;;
3207;SDS011;1616;52.394;9.756;2023-04-15T06:42:09;15.10;;;11.10;;
3207;SDS011;1616;52.394;9.756;2023-04-15T06:44:35;10.00;;;9.00;;
3207;SDS011;1616;52.394;9.756;2023-04-15T06:47:01;11.63;;;9.70;;
3207;SDS011;1616;52.394;9.756;2023-04-15T06:49:28;12.50;;;9.00;;
3207;SDS011;1616;52.394;9.756;2023-04-15T06:51:53;12.50;;;10.03;;
3207;SDS011;1616;52.394;9.756;2023-04-15T06:54:19;11.30;;;9.60;;
3207;SDS011;1616;52.394;9.756;2023-04-15T06:56:45;12.70;;;9.47;;
3207;SDS011;1616;52.394;9.756;2023-04-15T06:59:11;10.07;;;9.00;;
3207;SDS011;1616;52.394;9.756;2023-04-15T07:01:39;11.10;;;9.37;;
3207;SDS011;1616;52.394;9.756;2023-04-15T07:04:06;8.73;;;7.67;;
3207;SDS011;1616;52.394;9.756;2023-04-15T07:06:31;12.00;;;8.57;;
3207;SDS011;1616;52.394;9.756;2023-04-15T07:08:58;10.37;;;8.57;;
3207;SDS011;1616;52.394;9.756;2023-04-15T07:11:26;11.50;;;8.30;;
3207;SDS011;1616;52.394;9.756;2023-04-15T07:13:52;10.43;;;8.40;;
3207;SDS011;1616;52.394;9.756;2023-04-15T07:16:17;11.40;;;7.23;;
3207;SDS011;1616;52.394;9.756;2023-04-15T07:18:43;9.43;;;8.27;;
3207;SDS011;1616;52.394;9.756;2023-04-15T07:21:09;7.40;;;6.63;;
3207;SDS011;1616;52.394;9.756;2023-04-15T07:23:35;7.90;;;7.10;;
3207;SDS011;1616;52.394;9.756;2023-04-15T07:26:01;7.77;;;6.43;;
3207;SDS011;1616;52.394;9.756;2023-04-15T07:28:27;9.50;;;6.50;;
3207;SDS011;1616;52.394;9.756;2023-04-15T07:30:53;7.30;;;6.80;;
3207;SDS011;1616;52.394;9.756;2023-04-15T07:33:19;6.73;;;6.20;;
3207;SDS011;1616;52.394;9.756;2023-04-15T07:35:45;8.37;;;6.80;;
3207;SDS011;1616;52.394;9.756;2023-04-15T07:38:11;7.87;;;7.07;;
3207;SDS011;1616;52.394;9.756;2023-04-15T07:40:37;6.40;;;5.90;;
3207;SDS011;1616;52.394;9.756;2023-04-15T07:43:04;6.03;;;5.53;;
3207;SDS011;1616;52.394;9.756;2023-04-15T07:45:30;5.90;;;5.50;;
3207;SDS011;1616;52.394;9.756;2023-04-15T07:47:56;6.33;;;5.47;;
3207;SDS011;1616;52.394;9.756;2023-04-15T07:50:22;5.57;;;5.17;;
3207;SDS011;1616;52.394;9.756;2023-04-15T07:52:49;6.10;;;5.60;;
3207;SDS011;1616;52.394;9.756;2023-04-15T07:55:15;5.20;;;4.90;;
3207;SDS011;1616;52.394;9.756;2023-04-15T07:57:43;4.90;;;4.50;;
3207;SDS011;1616;52.394;9.756;2023-04-15T08:00:09;4.80;;;4.40;;
3207;SDS011;1616;52.394;9.756;2023-04-15T08:02:35;4.73;;;4.43;;
3207;SDS011;1616;52.394;9.756;2023-04-15T08:05:01;4.70;;;4.40;;
3207;SDS011;1616;52.394;9.756;2023-04-15T08:07:28;4.50;;;4.20;;
3207;SDS011;1616;52.394;9.756;2023-04-15T08:09:54;4.30;;;3.90;;
3207;SDS011;1616;52.394;9.756;2023-04-15T08:12:20;5.83;;;4.60;;
3207;SDS011;1616;52.394;9.756;2023-04-15T08:14:46;4.17;;;3.87;;
3207;SDS011;1616;52.394;9.756;2023-04-15T08:17:12;4.53;;;4.23;;
3207;SDS011;1616;52.394;9.756;2023-04-15T08:19:38;3.87;;;3.67;;
3207;SDS011;1616;52.394;9.756;2023-04-15T08:22:05;3.70;;;3.37;;
3207;SDS011;1616;52.394;9.756;2023-04-15T08:24:30;3.60;;;3.40;;
3207;SDS011;1616;52.394;9.756;2023-04-15T08:26:56;4.67;;;4.37;;
3207;SDS011;1616;52.394;9.756;2023-04-15T08:29:22;3.23;;;3.03;;
3207;SDS011;1616;52.394;9.756;2023-04-15T08:31:48;3.73;;;3.53;;
3207;SDS011;1616;52.394;9.756;2023-04-15T08:34:13;4.00;;;3.80;;
3207;SDS011;1616;52.394;9.756;2023-04-15T08:36:39;3.27;;;3.07;;
3207;SDS011;1616;52.394;9.756;2023-04-15T08:39:07;2.70;;;2.50;;
3207;SDS011;1616;52.394;9.756;2023-04-15T08:41:39;3.70;;;3.50;;
3207;SDS011;1616;52.394;9.756;2023-04-15T08:44:20;2.97;;;2.77;;
3207;SDS011;1616;52.394;9.756;2023-04-15T08:46:48;3.73;;;3.43;;
3207;SDS011;1616;52.394;9.756;2023-04-15T08:49:15;3.70;;;3.40;;
3207;SDS011;1616;52.394;9.756;2023-04-15T08:51:43;3.23;;;3.03;;
3207;SDS011;1616;52.394;9.756;2023-04-15T08:54:09;3.37;;;3.17;;
3207;SDS011;1616;52.394;9.756;2023-04-15T08:56:36;3.07;;;2.87;;
3207;SDS011;1616;52.394;9.756;2023-04-15T08:59:05;3.93;;;3.63;;
3207;SDS011;1616;52.394;9.756;2023-04-15T09:01:37;3.60;;;3.40;;
3207;SDS011;1616;52.394;9.756;2023-04-15T09:04:04;4.33;;;3.93;;
3207;SDS011;1616;52.394;9.756;2023-04-15T09:06:32;3.83;;;3.53;;
3207;SDS011;1616;52.394;9.756;2023-04-15T09:08:59;3.80;;;3.50;;
3207;SDS011;1616;52.394;9.756;2023-04-15T09:11:25;3.87;;;3.67;;
3207;SDS011;1616;52.394;9.756;2023-04-15T09:13:51;4.30;;;3.43;;
3207;SDS011;1616;52.394;9.756;2023-04-15T09:16:18;4.00;;;3.80;;
3207;SDS011;1616;52.394;9.756;2023-04-15T09:18:44;3.77;;;3.47;;
3207;SDS011;1616;52.394;9.756;2023-04-15T09:21:11;4.17;;;3.87;;
3207;SDS011;1616;52.394;9.756;2023-04-15T09:23:59;4.23;;;4.03;;
3207;SDS011;1616;52.394;9.756;2023-04-15T09:26:35;4.13;;;3.93;;
3207;SDS011;1616;52.394;9.756;2023-04-15T09:29:05;4.00;;;3.80;;
3207;SDS011;1616;52.394;9.756;2023-04-15T09:31:32;4.90;;;4.50;;
3207;SDS011;1616;52.394;9.756;2023-04-15T09:33:58;4.37;;;4.13;;
3207;SDS011;1616;52.394;9.756;2023-04-15T09:36:23;5.33;;;4.93;;
3207;SDS011;1616;52.394;9.756;2023-04-15T09:38:56;5.17;;;4.70;;
3207;SDS011;1616;52.394;9.756;2023-04-15T09:41:23;5.50;;;5.07;;
3207;SDS011;1616;52.394;9.756;2023-04-15T09:43:49;5.87;;;5.40;;
3207;SDS011;1616;52.394;9.756;2023-04-15T09:46:15;8.20;;;6.20;;
3207;SDS011;1616;52.394;9.756;2023-04-15T09:48:41;11.03;;;7.43;;
3207;SDS011;1616;52.394;9.756;2023-04-15T09:51:07;7.17;;;6.57;;
3207;SDS011;1616;52.394;9.756;2023-04-15T09:53:34;8.17;;;7.40;;
3207;SDS011;1616;52.394;9.756;2023-04-15T09:56:01;7.43;;;6.73;;
3207;SDS011;1616;52.394;9.756;2023-04-15T09:58:28;7.73;;;7.10;;
3207;SDS011;1616;52.394;9.756;2023-04-15T10:00:55;7.27;;;6.50;;
3207;SDS011;1616;52.394;9.756;2023-04-15T10:03:23;8.10;;;7.27;;
3207;SDS011;1616;52.394;9.756;2023-04-15T10:05:52;12.07;;;8.07;;
3207;SDS011;1616;52.394;9.756;2023-04-15T10:08:21;8.83;;;7.93;;
3207;SDS011;1616;52.394;9.756;2023-04-15T10:10:50;11.90;;;8.37;;
3207;SDS011;1616;52.394;9.756;2023-04-15T10:13:19;9.87;;;6.93;;
3207;SDS011;1616;52.394;9.756;2023-04-15T10:15:51;12.07;;;8.53;;
3207;SDS011;1616;52.394;9.756;2023-04-15T10:18:22;14.27;;;9.93;;
3207;SDS011;1616;52.394;9.756;2023-04-15T10:20:51;16.23;;;11.20;;
3207;SDS011;1616;52.394;9.756;2023-04-15T10:23:19;16.60;;;10.37;;
3207;SDS011;1616;52.394;9.756;2023-04-15T10:25:47;16.23;;;10.77;;
3207;SDS011;1616;52.394;9.756;2023-04-15T10:28:14;16.90;;;12.10;;
3207;SDS011;1616;52.394;9.756;2023-04-15T10:30:40;24.27;;;13.77;;
3207;SDS011;1616;52.394;9.756;2023-04-15T10:33:08;16.63;;;12.07;;
3207;SDS011;1616;52.394;9.756;2023-04-15T10:35:35;21.07;;;13.57;;
3207;SDS011;1616;52.394;9.756;2023-04-15T10:38:01;21.03;;;13.57;;
3207;SDS011;1616;52.394;9.756;2023-04-15T10:40:30;28.43;;;15.00;;
3207;SDS011;1616;52.394;9.756;2023-04-15T10:42:57;32.33;;;16.53;;
3207;SDS011;1616;52.394;9.756;2023-04-15T10:45:32;31.50;;;17.50;;
3207;SDS011;1616;52.394;9.756;2023-04-15T10:48:03;35.20;;;18.00;;
3207;SDS011;1616;52.394;9.756;2023-04-15T10:50:31;30.43;;;17.67;;
3207;SDS011;1616;52.394;9.756;2023-04-15T10:52:57;31.13;;;17.40;;
3207;SDS011;1616;52.394;9.756;2023-04-15T10:55:24;30.30;;;17.97;;
3207;SDS011;1616;52.394;9.756;2023-04-15T10:57:52;28.33;;;17.60;;
3207;SDS011;1616;52.394;9.756;2023-04-15T11:00:19;39.50;;;20.50;;
3207;SDS011;1616;52.394;9.756;2023-04-15T11:02:55;36.80;;;19.50;;
3207;SDS011;1616;52.394;9.756;2023-04-15T11:06:08;30.30;;;17.90;;
3207;SDS011;1616;52.394;9.756;2023-04-15T11:08:16;35.27;;;18.77;;
3207;SDS011;1616;52.394;9.756;2023-04-15T11:15:37;40.73;;;19.13;;
3207;SDS011;1616;52.394;9.756;2023-04-15T11:18:11;40.90;;;19.83;;
3207;SDS011;1616;52.394;9.756;2023-04-15T11:20:51;42.20;;;21.40;;
3207;SDS011;1616;52.394;9.756;2023-04-15T11:23:32;43.00;;;22.77;;
3207;SDS011;1616;52.394;9.756;2023-04-15T11:26:03;40.60;;;23.47;;
3207;SDS011;1616;52.394;9.756;2023-04-15T11:28:33;42.80;;;23.20;;
3207;SDS011;1616;52.394;9.756;2023-04-15T11:31:09;40.83;;;21.80;;
3207;SDS011;1616;52.394;9.756;2023-04-15T11:33:55;41.20;;;22.50;;
3207;SDS011;1616;52.394;9.756;2023-04-15T11:36:26;45.00;;;24.30;;
3207;SDS011;1616;52.394;9.756;2023-04-15T11:38:56;47.67;;;24.60;;
3207;SDS011;1616;52.394;9.756;2023-04-15T11:41:23;51.30;;;25.10;;
3207;SDS011;1616;52.394;9.756;2023-04-15T11:43:51;55.53;;;27.33;;
3207;SDS011;1616;52.394;9.756;2023-04-15T11:46:17;54.70;;;26.13;;
3207;SDS011;1616;52.394;9.756;2023-04-15T11:48:45;58.47;;;25.23;;
3207;SDS011;1616;52.394;9.756;2023-04-15T11:51:11;51.30;;;26.40;;
3207;SDS011;1616;52.394;9.756;2023-04-15T11:53:45;56.17;;;27.13;;
3207;SDS011;1616;52.394;9.756;2023-04-15T11:58:45;49.23;;;24.50;;
3207;SDS011;1616;52.394;9.756;2023-04-15T12:01:11;63.87;;;30.50;;
3207;SDS011;1616;52.394;9.756;2023-04-15T12:03:47;54.77;;;29.17;;
3207;SDS011;1616;52.394;9.756;2023-04-15T12:06:20;54.50;;;28.47;;
3207;SDS011;1616;52.394;9.756;2023-04-15T12:11:32;58.90;;;30.37;;
3207;SDS011;1616;52.394;9.756;2023-04-15T12:16:38;73.57;;;32.00;;
3207;SDS011;1616;52.394;9.756;2023-04-15T12:19:08;61.13;;;29.80;;
3207;SDS011;1616;52.394;9.756;2023-04-15T12:21:36;60.67;;;32.43;;
3207;SDS011;1616;52.394;9.756;2023-04-15T12:24:04;63.20;;;30.00;;
3207;SDS011;1616;52.394;9.756;2023-04-15T12:26:35;71.90;;;32.47;;
3207;SDS011;1616;52.394;9.756;2023-04-15T12:29:07;68.97;;;34.80;;
3207;SDS011;1616;52.394;9.756;2023-04-15T12:31:35;72.43;;;34.80;;
3207;SDS011;1616;52.394;9.756;2023-04-15T12:34:01;74.57;;;36.03;;
3207;SDS011;1616;52.394;9.756;2023-04-15T12:36:28;73.07;;;34.47;;
3207;SDS011;1616;52.394;9.756;2023-04-15T12:39:00;81.37;;;39.17;;
3207;SDS011;1616;52.394;9.756;2023-04-15T12:41:28;70.43;;;35.93;;
3207;SDS011;1616;52.394;9.756;2023-04-15T12:43:53;72.80;;;34.40;;
3207;SDS011;1616;52.394;9.756;2023-04-15T12:46:19;71.10;;;34.77;;
3207;SDS011;1616;52.394;9.756;2023-04-15T12:48:46;72.03;;;36.07;;
3207;SDS011;1616;52.394;9.756;2023-04-15T12:51:12;68.47;;;36.20;;
3207;SDS011;1616;52.394;9.756;2023-04-15T12:53:38;78.90;;;37.30;;
3207;SDS011;1616;52.394;9.756;2023-04-15T12:56:03;74.43;;;35.27;;
3207;SDS011;1616;52.394;9.756;2023-04-15T12:58:30;66.80;;;36.30;;
3207;SDS011;1616;52.394;9.756;2023-04-15T13:00:56;64.50;;;34.40;;
3207;SDS011;1616;52.394;9.756;2023-04-15T13:03:22;71.50;;;35.57;;
3207;SDS011;1616;52.394;9.756;2023-04-15T13:05:47;60.53;;;33.80;;
3207;SDS011;1616;52.394;9.756;2023-04-15T13:08:13;67.27;;;36.37;;
3207;SDS011;1616;52.394;9.756;2023-04-15T13:10:40;64.93;;;35.43;;
3207;SDS011;1616;52.394;9.756;2023-04-15T13:13:06;62.87;;;35.30;;
3207;SDS011;1616;52.394;9.756;2023-04-15T13:15:32;63.40;;;33.87;;
3207;SDS011;1616;52.394;9.756;2023-04-15T13:17:58;50.93;;;30.90;;
3207;SDS011;1616;52.394;9.756;2023-04-15T13:20:24;48.87;;;30.10;;
3207;SDS011;1616;52.394;9.756;2023-04-15T13:22:51;43.27;;;28.33;;
3207;SDS011;1616;52.394;9.756;2023-04-15T13:25:17;50.23;;;28.87;;
3207;SDS011;1616;52.394;9.756;2023-04-15T13:27:43;43.27;;;28.90;;
3207;SDS011;1616;52.394;9.756;2023-04-15T13:30:09;44.30;;;28.67;;
3207;SDS011;1616;52.394;9.756;2023-04-15T13:32:35;43.93;;;27.00;;
3207;SDS011;1616;52.394;9.756;2023-04-15T13:35:00;44.97;;;26.43;;
3207;SDS011;1616;52.394;9.756;2023-04-15T13:37:27;43.37;;;27.63;;
3207;SDS011;1616;52.394;9.756;2023-04-15T13:39:53;38.20;;;27.50;;
3207;SDS011;1616;52.394;9.756;2023-04-15T13:42:20;37.73;;;23.70;;
3207;SDS011;1616;52.394;9.756;2023-04-15T13:44:46;42.43;;;25.20;;
3207;SDS011;1616;52.394;9.756;2023-04-15T13:47:12;37.70;;;24.37;;
3207;SDS011;1616;52.394;9.756;2023-04-15T13:49:39;30.37;;;23.27;;
3207;SDS011;1616;52.394;9.756;2023-04-15T13:52:05;28.17;;;23.00;;
3207;SDS011;1616;52.394;9.756;2023-04-15T13:54:31;33.87;;;23.37;;
3207;SDS011;1616;52.394;9.756;2023-04-15T13:56:56;32.43;;;23.37;;
3207;SDS011;1616;52.394;9.756;2023-04-15T13:59:22;30.57;;;22.83;;
3207;SDS011;1616;52.394;9.756;2023-04-15T14:01:48;24.63;;;20.83;;
3207;SDS011;1616;52.394;9.756;2023-04-15T14:04:13;24.93;;;19.27;;
3207;SDS011;1616;52.394;9.756;2023-04-15T14:06:39;23.63;;;19.40;;
3207;SDS011;1616;52.394;9.756;2023-04-15T14:09:05;27.13;;;19.70;;
3207;SDS011;1616;52.394;9.756;2023-04-15T14:11:31;24.50;;;20.63;;
3207;SDS011;1616;52.394;9.756;2023-04-15T14:13:59;24.40;;;18.57;;
3207;SDS011;1616;52.394;9.756;2023-04-15T14:16:25;30.40;;;20.53;;
3207;SDS011;1616;52.394;9.756;2023-04-15T14:18:50;24.83;;;19.93;;
3207;SDS011;1616;52.394;9.756;2023-04-15T14:21:16;24.50;;;19.70;;
3207;SDS011;1616;52.394;9.756;2023-04-15T14:23:42;21.50;;;17.67;;
3207;SDS011;1616;52.394;9.756;2023-04-15T14:26:08;23.03;;;18.97;;
3207;SDS011;1616;52.394;9.756;2023-04-15T14:28:33;25.43;;;17.80;;
3207;SDS011;1616;52.394;9.756;2023-04-15T14:30:59;23.50;;;18.20;;
3207;SDS011;1616;52.394;9.756;2023-04-15T14:33:25;24.30;;;19.90;;
3207;SDS011;1616;52.394;9.756;2023-04-15T14:35:51;20.87;;;17.60;;
3207;SDS011;1616;52.394;9.756;2023-04-15T14:38:16;21.90;;;18.60;;
3207;SDS011;1616;52.394;9.756;2023-04-15T14:40:42;20.50;;;17.07;;
3207;SDS011;1616;52.394;9.756;2023-04-15T14:43:07;19.07;;;16.97;;
3207;SDS011;1616;52.394;9.756;2023-04-15T14:45:33;23.73;;;17.00;;
3207;SDS011;1616;52.394;9.756;2023-04-15T14:47:59;22.70;;;18.57;;
3207;SDS011;1616;52.394;9.756;2023-04-15T14:50:26;18.03;;;16.37;;
3207;SDS011;1616;52.394;9.756;2023-04-15T14:52:52;18.33;;;16.43;;
3207;SDS011;1616;52.394;9.756;2023-04-15T14:55:18;22.47;;;17.50;;
3207;SDS011;1616;52.394;9.756;2023-04-15T14:57:43;19.10;;;16.80;;
3207;SDS011;1616;52.394;9.756;2023-04-15T15:00:09;18.47;;;16.03;;
3207;SDS011;1616;52.394;9.756;2023-04-15T15:02:36;21.90;;;16.80;;
3207;SDS011;1616;52.394;9.756;2023-04-15T15:05:02;17.60;;;15.90;;
3207;SDS011;1616;52.394;9.756;2023-04-15T15:07:28;17.50;;;15.23;;
3207;SDS011;1616;52.394;9.756;2023-04-15T15:09:54;20.57;;;17.23;;